createdAt,value
2018-11-29T00:01:13.713Z,99948.55
2018-11-29T00:03:41.483Z,99950.06
2018-11-29T00:06:10.534Z,99936.22
2018-11-29T00:08:39.124Z,99938.77
2018-11-29T00:11:07.081Z,99929.77
2018-11-29T00:13:35.297Z,99936.66
2018-11-29T00:16:03.712Z,99953.77
2018-11-29T00:18:33.382Z,99947.09
2018-11-29T00:21:06.685Z,99960.52
2018-11-29T00:23:35.217Z,99963.22
2018-11-29T00:26:02.533Z,99955.22
2018-11-29T00:28:31.564Z,99942.22
2018-11-29T00:30:59.231Z,99939.87
2018-11-29T00:33:26.567Z,99931.92
2018-11-29T00:35:53.884Z,99927.80
2018-11-29T00:38:21.167Z,99929.50
2018-11-29T00:40:48.956Z,99937.86
2018-11-29T00:43:16.300Z,99941.51
2018-11-29T00:45:43.651Z,99941.74
2018-11-29T00:48:12.073Z,99942.88
2018-11-29T00:50:39.765Z,99950.73
2018-11-29T00:53:07.117Z,99936.61
2018-11-29T00:55:34.475Z,99956.28
2018-11-29T00:58:01.783Z,99953.42
2018-11-29T01:00:30.514Z,99970.08
2018-11-29T01:02:58.598Z,99965.87
2018-11-29T01:05:25.904Z,99950.34
2018-11-29T01:07:53.233Z,99949.52
2018-11-29T01:10:21.057Z,99960.77
2018-11-29T01:12:48.445Z,99958.75
2018-11-29T01:15:15.810Z,99961.30
2018-11-29T01:17:43.158Z,99946.80
2018-11-29T01:20:10.886Z,99947.30
2018-11-29T01:22:38.182Z,99949.09
2018-11-29T01:25:05.511Z,99949.09
2018-11-29T01:27:32.851Z,99957.91
2018-11-29T01:30:00.463Z,99948.86
2018-11-29T01:32:27.854Z,99959.88
2018-11-29T01:34:55.172Z,99961.83
2018-11-29T01:37:22.895Z,99970.78
2018-11-29T01:39:50.176Z,99965.71
2018-11-29T01:42:17.528Z,99970.33
2018-11-29T01:44:44.864Z,99959.41
2018-11-29T01:47:12.299Z,99953.86
2018-11-29T01:49:41.506Z,99956.17
2018-11-29T01:52:08.862Z,99950.53
2018-11-29T01:54:36.564Z,99946.20
2018-11-29T01:57:03.857Z,99954.33
2018-11-29T01:59:31.187Z,99955.06
2018-11-29T02:01:58.520Z,99953.13
2018-11-29T02:04:26.279Z,99936.49
2018-11-29T02:06:53.627Z,99941.46
2018-11-29T02:09:20.986Z,99940.76
2018-11-29T02:11:48.567Z,99934.02
2018-11-29T02:14:15.884Z,99931.36
2018-11-29T02:16:43.223Z,99923.75
2018-11-29T02:19:10.572Z,99920.88
2018-11-29T02:21:38.295Z,99924.63
2018-11-29T02:24:05.676Z,99927.91
2018-11-29T02:26:32.989Z,99947.02
2018-11-29T02:29:00.329Z,99929.41
2018-11-29T02:31:32.275Z,99927.47
2018-11-29T02:33:59.581Z,99936.53
2018-11-29T02:36:26.899Z,99926.66
2018-11-29T02:38:54.665Z,99930.14
2018-11-29T02:41:22.056Z,99928.45
2018-11-29T02:43:49.517Z,99929.53
2018-11-29T02:46:16.883Z,99935.25
2018-11-29T02:48:44.540Z,99925.95
2018-11-29T02:51:11.902Z,99930.29
2018-11-29T02:53:39.286Z,99930.66
2018-11-29T02:56:06.692Z,99925.34
2018-11-29T02:58:34.400Z,99931.13
2018-11-29T03:01:01.768Z,99925.80
2018-11-29T03:03:29.071Z,99931.48
2018-11-29T03:05:56.395Z,99929.32
2018-11-29T03:08:24.065Z,99934.75
2018-11-29T03:10:51.877Z,99924.72
2018-11-29T03:13:19.212Z,99925.43
2018-11-29T03:15:46.552Z,99924.20
2018-11-29T03:18:14.288Z,99918.53
2018-11-29T03:20:41.634Z,99920.47
2018-11-29T03:23:08.952Z,99911.27
2018-11-29T03:25:36.256Z,99911.38
2018-11-29T03:28:03.931Z,99914.64
2018-11-29T03:30:31.241Z,99919.44
2018-11-29T03:32:58.567Z,99928.61
2018-11-29T03:35:26.333Z,99924.87
2018-11-29T03:37:53.743Z,99920.27
2018-11-29T03:40:21.095Z,99913.11
2018-11-29T03:42:48.510Z,99911.16
2018-11-29T03:45:16.280Z,99913.09
2018-11-29T03:47:43.721Z,99923.55
2018-11-29T03:50:11.085Z,99922.23
2018-11-29T03:52:38.437Z,99906.89
2018-11-29T03:55:06.159Z,99910.52
2018-11-29T03:57:33.513Z,99911.84
2018-11-29T04:00:00.830Z,99907.36
2018-11-29T04:02:28.190Z,99914.50
2018-11-29T04:04:55.920Z,99919.20
2018-11-29T04:07:23.244Z,99919.20
2018-11-29T04:09:50.602Z,99915.12
2018-11-29T04:12:17.964Z,99913.19
2018-11-29T04:14:45.311Z,99917.91
2018-11-29T04:17:12.653Z,99923.94
2018-11-29T04:19:40.193Z,99919.48
2018-11-29T04:22:08.166Z,99916.83
2018-11-29T04:24:35.456Z,99911.88
2018-11-29T04:27:02.784Z,99900.79
2018-11-29T04:29:30.552Z,99902.48
2018-11-29T04:31:59.261Z,99901.16
2018-11-29T04:34:26.551Z,99900.79
2018-11-29T04:36:53.847Z,99900.89
2018-11-29T04:39:21.572Z,99910.80
2018-11-29T04:41:48.930Z,99901.70
2018-11-29T04:44:16.251Z,99903.42
2018-11-29T04:46:44.753Z,99893.73
2018-11-29T04:49:12.098Z,99900.02
2018-11-29T04:51:39.458Z,99900.02
2018-11-29T04:54:07.618Z,99900.38
2018-11-29T04:56:34.963Z,99898.11
2018-11-29T04:59:02.293Z,99904.52
2018-11-29T05:01:29.661Z,99903.55
2018-11-29T05:03:58.107Z,99900.79
2018-11-29T05:06:26.392Z,99893.55
2018-11-29T05:08:53.717Z,99883.28
2018-11-29T05:11:21.499Z,99876.17
2018-11-29T05:13:48.815Z,99889.45
2018-11-29T05:16:16.152Z,99880.88
2018-11-29T05:18:43.545Z,99872.45
2018-11-29T05:21:11.173Z,99872.31
2018-11-29T05:23:38.501Z,99873.27
2018-11-29T05:26:05.812Z,99869.89
2018-11-29T05:28:33.559Z,99861.20
2018-11-29T05:31:00.877Z,99864.43
2018-11-29T05:33:28.188Z,99862.64
2018-11-29T05:35:55.971Z,99863.70
2018-11-29T05:38:23.355Z,99865.90
2018-11-29T05:40:50.730Z,99862.38
2018-11-29T05:43:18.044Z,99862.26
2018-11-29T05:45:45.407Z,99859.70
2018-11-29T05:48:12.825Z,99863.80
2018-11-29T05:50:40.634Z,99870.18
2018-11-29T05:53:09.080Z,99870.94
2018-11-29T05:55:36.557Z,99872.73
2018-11-29T05:58:04.244Z,99873.70
2018-11-29T06:00:31.623Z,99879.11
2018-11-29T06:02:58.958Z,99886.25
2018-11-29T06:05:26.627Z,99879.61
2018-11-29T06:07:54.823Z,99878.75
2018-11-29T06:10:22.169Z,99884.52
2018-11-29T06:12:49.790Z,99886.81
2018-11-29T06:15:17.478Z,99884.77
2018-11-29T06:17:44.783Z,99883.94
2018-11-29T06:20:12.596Z,99874.38
2018-11-29T06:22:41.187Z,99874.95
2018-11-29T06:27:42.749Z,99881.85
2018-11-29T06:30:10.098Z,99875.21
2018-11-29T06:32:38.025Z,99874.02
2018-11-29T06:35:08.126Z,99878.83
2018-11-29T06:37:35.493Z,99875.45
2018-11-29T06:40:02.876Z,99883.05
2018-11-29T06:42:30.559Z,99879.53
2018-11-29T06:44:58.087Z,99873.86
2018-11-29T06:47:25.419Z,99876.52
2018-11-29T06:49:53.160Z,99876.16
2018-11-29T06:52:20.495Z,99867.07
2018-11-29T06:54:47.851Z,99861.40
2018-11-29T06:57:15.522Z,99853.07
2018-11-29T06:59:42.860Z,99846.07
2018-11-29T07:02:10.216Z,99850.16
2018-11-29T07:04:37.895Z,99849.80
2018-11-29T07:07:05.208Z,99846.31
2018-11-29T07:09:32.541Z,99845.55
2018-11-29T07:12:00.268Z,99838.45
2018-11-29T07:14:27.597Z,99840.37
2018-11-29T07:16:54.971Z,99849.31
2018-11-29T07:19:22.623Z,99826.84
2018-11-29T07:21:49.947Z,99830.94
2018-11-29T07:24:17.315Z,99823.83
2018-11-29T07:26:46.681Z,99824.80
2018-11-29T07:29:16.897Z,99823.47
2018-11-29T07:31:42.668Z,99823.57
2018-11-29T07:34:10.449Z,99820.05
2018-11-29T07:36:37.796Z,99812.09
2018-11-29T07:39:05.177Z,99810.77
2018-11-29T07:41:32.853Z,99817.19
2018-11-29T07:44:00.207Z,99815.63
2018-11-29T07:46:28.487Z,99814.31
2018-11-29T07:48:58.735Z,99802.88
2018-11-29T07:51:26.844Z,99802.54
2018-11-29T07:53:54.806Z,99792.53
2018-11-29T07:56:22.456Z,99778.79
2018-11-29T07:58:52.447Z,99782.63
2018-11-29T08:01:17.325Z,99789.66
2018-11-29T08:03:45.052Z,99780.84
2018-11-29T08:06:12.403Z,99777.22
2018-11-29T08:08:40.503Z,99773.23
2018-11-29T08:11:09.023Z,99773.59
2018-11-29T08:13:37.806Z,99775.90
2018-11-29T08:16:05.119Z,99766.86
2018-11-29T08:18:32.850Z,99755.41
2018-11-29T08:21:02.151Z,99762.16
2018-11-29T08:23:30.459Z,99769.31
2018-11-29T08:25:58.080Z,99767.16
2018-11-29T08:28:26.318Z,99736.25
2018-11-29T08:30:53.692Z,99745.08
2018-11-29T08:33:22.512Z,99744.11
2018-11-29T08:35:49.915Z,99736.13
2018-11-29T08:38:17.271Z,99743.73
2018-11-29T08:40:44.936Z,99751.23
2018-11-29T08:43:13.424Z,99753.17
2018-11-29T08:45:40.750Z,99753.06
2018-11-29T08:48:09.157Z,99748.59
2018-11-29T08:50:36.547Z,99746.78
2018-11-29T08:53:03.909Z,99754.86
2018-11-29T08:55:31.954Z,99754.02
2018-11-29T08:57:59.333Z,99754.98
2018-11-29T09:00:26.706Z,99747.25
2018-11-29T09:02:55.074Z,99744.22
2018-11-29T09:05:22.387Z,99727.99
2018-11-29T09:07:49.722Z,99731.41
2018-11-29T09:10:17.447Z,99735.16
2018-11-29T09:12:45.505Z,99725.13
2018-11-29T09:15:12.856Z,99730.89
2018-11-29T09:17:40.652Z,99735.98
2018-11-29T09:20:08.723Z,99734.27
2018-11-29T09:22:36.099Z,99731.35
2018-11-29T09:25:03.812Z,99732.81
2018-11-29T09:27:31.196Z,99724.80
2018-11-29T09:29:58.499Z,99727.20
2018-11-29T09:32:26.193Z,99735.66
2018-11-29T09:34:53.523Z,99719.57
2018-11-29T09:37:21.792Z,99738.68
2018-11-29T09:39:50.523Z,99737.80
2018-11-29T09:42:17.840Z,99728.95
2018-11-29T09:44:45.162Z,99722.38
2018-11-29T09:47:13.561Z,99742.83
2018-11-29T09:49:41.708Z,99734.84
2018-11-29T09:52:09.156Z,99739.30
2018-11-29T09:54:36.772Z,99737.27
2018-11-29T09:57:04.091Z,99745.95
2018-11-29T09:59:32.448Z,99736.52
2018-11-29T10:02:01.381Z,99742.55
2018-11-29T10:04:28.710Z,99742.67
2018-11-29T10:06:57.985Z,99735.16
2018-11-29T10:09:25.757Z,99729.52
2018-11-29T10:11:54.108Z,99728.62
2018-11-29T10:14:22.220Z,99724.46
2018-11-29T10:16:50.929Z,99714.73
2018-11-29T10:19:18.298Z,99704.94
2018-11-29T10:21:46.276Z,99711.09
2018-11-29T10:24:14.837Z,99716.58
2018-11-29T10:26:42.559Z,99718.27
2018-11-29T10:29:09.868Z,99710.63
2018-11-29T10:31:37.572Z,99698.36
2018-11-29T10:34:04.976Z,99700.78
2018-11-29T10:36:32.329Z,99713.83
2018-11-29T10:39:00.201Z,99688.23
2018-11-29T10:41:27.628Z,99688.97
2018-11-29T10:43:55.947Z,99680.81
2018-11-29T10:46:23.776Z,99685.55
2018-11-29T10:48:51.250Z,99673.78
2018-11-29T10:51:18.624Z,99660.92
2018-11-29T10:53:46.297Z,99666.25
2018-11-29T10:56:13.675Z,99670.12
2018-11-29T10:58:41.012Z,99671.59
2018-11-29T11:01:13.775Z,99681.39
2018-11-29T11:03:41.389Z,99659.23
2018-11-29T11:06:09.503Z,99658.38
2018-11-29T11:08:37.196Z,99660.70
2018-11-29T11:11:06.671Z,99644.00
2018-11-29T11:13:34.969Z,99641.81
2018-11-29T11:16:02.348Z,99630.67
2018-11-29T11:18:30.477Z,99626.55
2018-11-29T11:20:59.066Z,99620.72
2018-11-29T11:23:26.997Z,99621.70
2018-11-29T11:25:54.349Z,99636.70
2018-11-29T11:28:22.822Z,99624.71
2018-11-29T11:30:50.496Z,99620.94
2018-11-29T11:33:18.042Z,99609.30
2018-11-29T11:35:45.815Z,99591.84
2018-11-29T11:38:14.008Z,99596.06
2018-11-29T11:40:41.448Z,99590.58
2018-11-29T11:43:09.176Z,99585.69
2018-11-29T11:45:36.604Z,99579.47
2018-11-29T11:48:10.252Z,99580.04
2018-11-29T11:50:39.362Z,99570.55
2018-11-29T11:53:09.580Z,99561.94
2018-11-29T11:55:37.775Z,99558.16
2018-11-29T11:58:07.421Z,99556.92
2018-11-29T12:00:35.403Z,99561.49
2018-11-29T12:03:02.769Z,99564.73
2018-11-29T12:05:30.481Z,99572.60
2018-11-29T12:07:58.801Z,99560.22
2018-11-29T12:10:26.598Z,99583.40
2018-11-29T12:12:54.689Z,99569.97
2018-11-29T12:15:22.947Z,99569.78
2018-11-29T12:17:50.341Z,99585.69
2018-11-29T12:20:18.775Z,99585.31
2018-11-29T12:22:46.102Z,99610.55
2018-11-29T12:25:13.430Z,99623.05
2018-11-29T12:27:41.220Z,99634.83
2018-11-29T12:30:08.634Z,99634.60
2018-11-29T12:32:36.367Z,99632.06
2018-11-29T12:35:05.769Z,99616.34
2018-11-29T12:37:33.894Z,99590.92
2018-11-29T12:40:01.231Z,99582.86
2018-11-29T12:42:29.613Z,99576.09
2018-11-29T12:44:57.899Z,99568.51
2018-11-29T12:47:25.319Z,99572.57
2018-11-29T12:49:53.024Z,99568.41
2018-11-29T12:52:20.989Z,99564.99
2018-11-29T12:54:49.160Z,99548.56
2018-11-29T12:57:16.884Z,99555.26
2018-11-29T12:59:45.065Z,99542.56
2018-11-29T13:02:12.436Z,99528.37
2018-11-29T13:04:40.492Z,99519.25
2018-11-29T13:07:07.939Z,99479.28
2018-11-29T13:09:35.306Z,99463.09
2018-11-29T13:12:03.415Z,99442.72
2018-11-29T13:14:30.815Z,99449.76
2018-11-29T13:16:58.202Z,99430.41
2018-11-29T13:19:26.001Z,99411.44
2018-11-29T13:21:53.985Z,99405.14
2018-11-29T13:24:21.345Z,99387.86
2018-11-29T13:26:49.715Z,99361.14
2018-11-29T13:29:17.296Z,99353.39
2018-11-29T13:31:45.611Z,99343.97
2018-11-29T13:34:13.426Z,99339.07
2018-11-29T13:36:41.377Z,99324.66
2018-11-29T13:39:09.645Z,99340.61
2018-11-29T13:41:38.793Z,99350.84
2018-11-29T13:44:06.219Z,99355.98
2018-11-29T13:46:34.377Z,99366.80
2018-11-29T13:49:02.317Z,99403.28
2018-11-29T13:51:29.726Z,99390.33
2018-11-29T13:53:57.405Z,99373.34
2018-11-29T13:56:26.636Z,99432.08
2018-11-29T13:58:54.038Z,99444.86
2018-11-29T14:01:21.477Z,99427.05
2018-11-29T14:03:49.167Z,99446.09
2018-11-29T14:06:16.526Z,99396.77
2018-11-29T14:08:43.954Z,99410.97
2018-11-29T14:11:11.716Z,99413.18
2018-11-29T14:13:39.067Z,99430.06
2018-11-29T14:16:07.210Z,99441.94
2018-11-29T14:18:34.976Z,99427.34
2018-11-29T14:21:02.391Z,99445.75
2018-11-29T14:23:29.759Z,99426.55
2018-11-29T14:25:57.510Z,99407.69
2018-11-29T14:28:24.927Z,99418.96
2018-11-29T14:30:52.310Z,99393.97
2018-11-29T14:33:21.139Z,99402.77
2018-11-29T14:35:48.508Z,99408.32
2018-11-29T14:38:16.778Z,99386.05
2018-11-29T14:40:45.452Z,99352.52
2018-11-29T14:43:12.808Z,99305.00
2018-11-29T14:45:40.417Z,99276.08
2018-11-29T14:48:08.108Z,99268.91
2018-11-29T14:50:35.642Z,99277.75
2018-11-29T14:53:03.056Z,99286.56
2018-11-29T14:55:30.974Z,99303.03
2018-11-29T14:57:58.345Z,99287.77
2018-11-29T15:00:25.757Z,99281.45
2018-11-29T15:02:53.595Z,99262.23
2018-11-29T15:05:20.915Z,99233.36
2018-11-29T15:07:49.323Z,99234.62
2018-11-29T15:10:17.887Z,99225.11
2018-11-29T15:12:45.726Z,99238.72
2018-11-29T15:15:13.157Z,99253.07
2018-11-29T15:17:45.597Z,99266.47
2018-11-29T15:20:12.983Z,99272.36
2018-11-29T15:22:40.406Z,99277.52
2018-11-29T15:25:10.044Z,99277.52
2018-11-29T15:27:37.401Z,99270.05
2018-11-29T15:30:04.732Z,99265.48
2018-11-29T15:32:32.540Z,99254.33
2018-11-29T15:34:59.936Z,99248.52
2018-11-29T15:37:27.296Z,99247.19
2018-11-29T15:39:55.149Z,99256.44
2018-11-29T15:42:23.403Z,99251.33
2018-11-29T15:44:51.496Z,99252.88
2018-11-29T15:47:19.144Z,99260.36
2018-11-29T15:49:47.823Z,99273.33
2018-11-29T15:52:16.003Z,99298.78
2018-11-29T15:54:43.801Z,99305.92
2018-11-29T15:57:11.245Z,99303.39
2018-11-29T15:59:39.356Z,99316.92
2018-11-29T16:02:07.145Z,99316.22
2018-11-29T16:04:34.531Z,99323.02
2018-11-29T16:07:01.925Z,99317.47
2018-11-29T16:09:29.989Z,99296.80
2018-11-29T16:11:58.525Z,99288.47
2018-11-29T16:14:25.839Z,99286.15
2018-11-29T16:16:53.562Z,99288.12
2018-11-29T16:19:21.861Z,99287.42
2018-11-29T16:21:51.281Z,99297.69
2018-11-29T16:24:17.467Z,99311.86
2018-11-29T16:26:44.869Z,99309.26
2018-11-29T16:29:12.248Z,99307.80
2018-11-29T16:31:39.915Z,99321.45
2018-11-29T16:34:07.626Z,99319.78
2018-11-29T16:36:34.959Z,99314.11
2018-11-29T16:39:02.740Z,99312.08
2018-11-29T16:41:31.356Z,99339.69
2018-11-29T16:43:58.697Z,99336.05
2018-11-29T16:46:26.306Z,99333.64
2018-11-29T16:48:53.683Z,99339.95
2018-11-29T16:51:21.417Z,99326.41
2018-11-29T16:53:49.565Z,99331.67
2018-11-29T16:56:17.748Z,99330.76
2018-11-29T16:58:45.426Z,99327.40
2018-11-29T17:01:12.757Z,99324.52
2018-11-29T17:03:43.151Z,99320.30
2018-11-29T17:06:10.855Z,99307.75
2018-11-29T17:08:39.224Z,99296.25
2018-11-29T17:11:06.583Z,99312.09
2018-11-29T17:13:34.259Z,99324.93
2018-11-29T17:16:01.588Z,99325.63
2018-11-29T17:18:28.947Z,99329.84
2018-11-29T17:20:57.316Z,99316.75
2018-11-29T17:23:24.707Z,99341.05
2018-11-29T17:25:52.941Z,99336.08
2018-11-29T17:28:20.690Z,99346.38
2018-11-29T17:30:48.072Z,99373.70
2018-11-29T17:33:15.395Z,99373.41
2018-11-29T17:35:43.597Z,99341.34
2018-11-29T17:38:10.942Z,99354.53
2018-11-29T17:40:38.260Z,99365.17
2018-11-29T17:43:06.040Z,99373.86
2018-11-29T17:45:34.005Z,99358.45
2018-11-29T17:48:01.352Z,99365.68
2018-11-29T17:50:31.801Z,99367.70
2018-11-29T17:52:59.489Z,99358.96
2018-11-29T17:55:29.695Z,99344.87
2018-11-29T17:57:57.508Z,99332.26
2018-11-29T18:00:24.823Z,99311.34
2018-11-29T18:02:53.715Z,99334.67
2018-11-29T18:05:24.044Z,99309.16
2018-11-29T18:07:51.741Z,99313.21
2018-11-29T18:10:20.568Z,99325.77
2018-11-29T18:12:48.356Z,99321.00
2018-11-29T18:15:15.713Z,99327.31
2018-11-29T18:17:44.018Z,99332.30
2018-11-29T18:20:11.816Z,99321.13
2018-11-29T18:22:39.616Z,99304.74
2018-11-29T18:25:06.940Z,99310.84
2018-11-29T18:27:35.503Z,99304.82
2018-11-29T18:30:02.820Z,99298.08
2018-11-29T18:32:31.484Z,99315.33
2018-11-29T18:34:59.177Z,99309.56
2018-11-29T18:37:26.563Z,99328.88
2018-11-29T18:39:53.881Z,99348.69
2018-11-29T18:42:23.333Z,99359.41
2018-11-29T18:44:50.709Z,99374.73
2018-11-29T18:47:18.855Z,99373.44
2018-11-29T18:49:49.213Z,99382.34
2018-11-29T18:52:17.274Z,99385.52
2018-11-29T18:54:44.652Z,99384.09
2018-11-29T18:57:12.452Z,99384.84
2018-11-29T18:59:39.808Z,99392.76
2018-11-29T19:02:08.201Z,99401.84
2018-11-29T19:04:35.820Z,99410.80
2018-11-29T19:07:04.036Z,99408.03
2018-11-29T19:09:32.107Z,99399.98
2018-11-29T19:12:00.702Z,99389.60
2018-11-29T19:14:28.093Z,99389.38
2018-11-29T19:16:56.102Z,99382.30
2018-11-29T19:19:28.597Z,99378.91
2018-11-29T19:21:55.911Z,99380.39
2018-11-29T19:24:26.586Z,99377.58
2018-11-29T19:26:54.500Z,99385.66
2018-11-29T19:29:21.793Z,99364.73
2018-11-29T19:31:49.629Z,99373.92
2018-11-29T19:34:18.488Z,99369.30
2018-11-29T19:36:45.788Z,99370.86
2018-11-29T19:39:13.169Z,99374.95
2018-11-29T19:41:40.769Z,99365.28
2018-11-29T19:44:08.292Z,99369.34
2018-11-29T19:46:35.701Z,99371.88
2018-11-29T19:49:04.013Z,99367.89
2018-11-29T19:51:33.803Z,99362.91
2018-11-29T19:54:02.376Z,99359.40
2018-11-29T19:56:30.119Z,99340.93
2018-11-29T19:58:57.423Z,99328.52
2018-11-29T20:01:25.560Z,99341.23
2018-11-29T20:03:54.445Z,99346.57
2018-11-29T20:06:21.777Z,99359.30
2018-11-29T20:08:51.189Z,99350.96
2018-11-29T20:11:19.632Z,99347.38
2018-11-29T20:13:48.151Z,99349.23
2018-11-29T20:16:15.504Z,99353.11
2018-11-29T20:18:43.280Z,99350.22
2018-11-29T20:21:10.601Z,99361.60
2018-11-29T20:23:37.908Z,99354.60
2018-11-29T20:26:05.665Z,99364.64
2018-11-29T20:28:33.934Z,99375.36
2018-11-29T20:31:01.239Z,99369.77
2018-11-29T20:33:28.871Z,99361.89
2018-11-29T20:35:57.348Z,99353.17
2018-11-29T20:38:24.689Z,99353.81
2018-11-29T20:40:52.510Z,99357.91
2018-11-29T20:43:19.952Z,99361.66
2018-11-29T20:45:47.322Z,99363.72
2018-11-29T20:48:15.078Z,99356.09
2018-11-29T20:50:42.947Z,99364.14
2018-11-29T20:53:11.420Z,99373.20
2018-11-29T20:55:39.066Z,99373.78
2018-11-29T20:58:07.872Z,99367.55
2018-11-29T21:00:35.572Z,99374.08
2018-11-29T21:03:04.401Z,99373.80
2018-11-29T21:05:31.725Z,99364.36
2018-11-29T21:07:59.451Z,99362.91
2018-11-29T21:10:27.236Z,99365.56
2018-11-29T21:12:54.555Z,99362.78
2018-11-29T21:15:22.751Z,99371.94
2018-11-29T21:17:51.940Z,99354.98
2018-11-29T21:20:19.280Z,99361.05
2018-11-29T21:22:47.435Z,99355.44
2018-11-29T21:25:15.051Z,99354.68
2018-11-29T21:27:43.389Z,99355.73
2018-11-29T21:30:12.164Z,99348.95
2018-11-29T21:32:40.738Z,99342.58
2018-11-29T21:35:09.209Z,99344.91
2018-11-29T21:37:37.132Z,99353.37
2018-11-29T21:40:05.040Z,99348.86
2018-11-29T21:42:32.344Z,99347.40
2018-11-29T21:44:59.663Z,99346.42
2018-11-29T21:47:27.844Z,99345.94
2018-11-29T21:49:56.180Z,99338.31
2018-11-29T21:52:23.901Z,99342.44
2018-11-29T21:54:51.269Z,99352.45
2018-11-29T21:57:18.595Z,99361.77
2018-11-29T21:59:46.277Z,99372.62
2018-11-29T22:02:14.596Z,99379.50
2018-11-29T22:04:42.842Z,99379.23
2018-11-29T22:07:10.636Z,99377.27
2018-11-29T22:09:38.060Z,99382.34
2018-11-29T22:12:05.371Z,99381.36
2018-11-29T22:14:33.027Z,99387.66
2018-11-29T22:17:00.441Z,99382.34
2018-11-29T22:19:28.567Z,99379.05
2018-11-29T22:21:56.209Z,99382.57
2018-11-29T22:24:23.651Z,99381.59
2018-11-29T22:26:51.651Z,99390.39
2018-11-29T22:29:19.391Z,99378.52
2018-11-29T22:31:47.548Z,99385.02
2018-11-29T22:34:14.885Z,99390.56
2018-11-29T22:36:42.600Z,99374.83
2018-11-29T22:39:09.934Z,99389.34
2018-11-29T22:41:37.244Z,99383.03
2018-11-29T22:44:04.575Z,99386.17
2018-11-29T22:46:32.237Z,99386.67
2018-11-29T22:49:00.283Z,99381.70
2018-11-29T22:51:28.336Z,99370.55
2018-11-29T22:53:56.033Z,99375.75
2018-11-29T22:56:23.418Z,99369.95
2018-11-29T22:58:50.736Z,99370.17
2018-11-29T23:01:24.540Z,99378.00
2018-11-29T23:03:53.195Z,99373.89
2018-11-29T23:06:20.557Z,99384.63
2018-11-29T23:08:48.742Z,99382.57
2018-11-29T23:11:17.264Z,99383.08
2018-11-29T23:13:44.664Z,99393.84
2018-11-29T23:16:12.832Z,99380.66
2018-11-29T23:18:40.540Z,99378.16
2018-11-29T23:21:08.667Z,99360.00
2018-11-29T23:23:36.009Z,99365.33
2018-11-29T23:26:03.368Z,99365.45
2018-11-29T23:28:31.277Z,99365.10
2018-11-29T23:30:58.691Z,99360.77
2018-11-29T23:33:30.631Z,99363.55
2018-11-29T23:35:58.920Z,99353.06
2018-11-29T23:38:26.675Z,99357.52
2018-11-29T23:40:54.094Z,99360.31
2018-11-29T23:43:21.545Z,99358.22
2018-11-29T23:45:48.879Z,99353.41
2018-11-29T23:48:16.213Z,99359.08
2018-11-29T23:50:44.589Z,99354.58
2018-11-29T23:53:12.387Z,99357.47
2018-11-29T23:55:39.687Z,99352.14
2018-11-29T23:58:07.020Z,99357.69
